sensor_id;sensor_type;location;lat;lon;timestamp;pressure;altitude;pressure_sealevel;temperature;humidity
34921;BME280;21128;50.016;20.002;2023-03-26T00:01:18;97938.01;;;8.01;65.86
34921;BME280;21128;50.016;20.002;2023-03-26T00:03:46;97937.31;;;7.99;64.94
34921;BME280;21128;50.016;20.002;2023-03-26T00:06:27;97938.98;;;8.00;65.83
34921;BME280;21128;50.016;20.002;2023-03-26T00:08:56;97933.88;;;7.98;65.37
34921;BME280;21128;50.016;20.002;2023-03-26T00:11:25;97926.84;;;7.99;65.90
34921;BME280;21128;50.016;20.002;2023-03-26T00:13:54;97940.63;;;8.01;65.99
34921;BME280;21128;50.016;20.002;2023-03-26T00:16:29;97930.98;;;8.01;65.46
34921;BME280;21128;50.016;20.002;2023-03-26T00:18:57;97941.14;;;8.04;65.58
34921;BME280;21128;50.016;20.002;2023-03-26T00:21:26;97935.91;;;8.04;65.96
34921;BME280;21128;50.016;20.002;2023-03-26T00:24:08;97928.87;;;8.05;66.57
34921;BME280;21128;50.016;20.002;2023-03-26T00:26:36;97929.55;;;8.07;66.42
34921;BME280;21128;50.016;20.002;2023-03-26T00:29:04;97926.80;;;8.08;67.03
34921;BME280;21128;50.016;20.002;2023-03-26T00:31:33;97919.63;;;8.10;66.69
34921;BME280;21128;50.016;20.002;2023-03-26T00:34:00;97910.80;;;8.11;68.16
34921;BME280;21128;50.016;20.002;2023-03-26T00:36:29;97915.21;;;8.11;68.46
34921;BME280;21128;50.016;20.002;2023-03-26T00:38:57;97917.98;;;8.09;68.02
34921;BME280;21128;50.016;20.002;2023-03-26T00:41:24;97916.34;;;8.08;68.10
34921;BME280;21128;50.016;20.002;2023-03-26T00:43:55;97914.70;;;8.07;68.69
34921;BME280;21128;50.016;20.002;2023-03-26T00:46:23;97912.36;;;8.04;68.48
34921;BME280;21128;50.016;20.002;2023-03-26T00:48:51;97910.05;;;8.01;69.04
34921;BME280;21128;50.016;20.002;2023-03-26T00:51:19;97910.20;;;8.00;68.53
34921;BME280;21128;50.016;20.002;2023-03-26T00:53:48;97906.77;;;7.99;68.68
34921;BME280;21128;50.016;20.002;2023-03-26T00:56:16;97902.48;;;7.98;68.51
34921;BME280;21128;50.016;20.002;2023-03-26T00:58:43;97903.45;;;7.97;69.20
34921;BME280;21128;50.016;20.002;2023-03-26T01:01:13;97899.20;;;7.96;69.54
34921;BME280;21128;50.016;20.002;2023-03-26T01:03:42;97898.37;;;7.96;69.43
34921;BME280;21128;50.016;20.002;2023-03-26T01:06:24;97906.07;;;7.97;69.57
34921;BME280;21128;50.016;20.002;2023-03-26T01:09:18;97900.84;;;7.97;69.52
34921;BME280;21128;50.016;20.002;2023-03-26T01:11:47;97896.42;;;7.98;69.76
34921;BME280;21128;50.016;20.002;2023-03-26T01:14:18;97895.45;;;7.99;69.82
34921;BME280;21128;50.016;20.002;2023-03-26T01:21:56;97905.48;;;8.03;69.52
34921;BME280;21128;50.016;20.002;2023-03-26T01:24:23;97902.87;;;8.03;69.94
34921;BME280;21128;50.016;20.002;2023-03-26T01:38:09;97908.57;;;8.16;69.08
34921;BME280;21128;50.016;20.002;2023-03-26T01:41:06;97919.86;;;8.17;68.14
34921;BME280;21128;50.016;20.002;2023-03-26T01:43:42;97911.03;;;8.18;68.83
34921;BME280;21128;50.016;20.002;2023-03-26T01:46:12;97918.22;;;8.16;69.45
34921;BME280;21128;50.016;20.002;2023-03-26T01:48:42;97913.57;;;8.10;70.60
34921;BME280;21128;50.016;20.002;2023-03-26T01:51:12;97898.14;;;7.89;74.99
34921;BME280;21128;50.016;20.002;2023-03-26T01:53:42;97882.49;;;7.61;76.58
34921;BME280;21128;50.016;20.002;2023-03-26T02:01:54;97889.17;;;7.19;82.81
34921;BME280;21128;50.016;20.002;2023-03-26T02:04:37;97885.78;;;7.09;82.62
34921;BME280;21128;50.016;20.002;2023-03-26T02:07:18;97887.31;;;7.01;84.38
34921;BME280;21128;50.016;20.002;2023-03-26T02:09:50;97882.80;;;6.94;84.17
34921;BME280;21128;50.016;20.002;2023-03-26T02:12:20;97880.59;;;6.89;84.29
34921;BME280;21128;50.016;20.002;2023-03-26T02:14:48;97874.55;;;6.89;83.58
34921;BME280;21128;50.016;20.002;2023-03-26T02:17:16;97877.05;;;6.90;83.83
34921;BME280;21128;50.016;20.002;2023-03-26T02:19:44;97869.48;;;6.87;85.93
34921;BME280;21128;50.016;20.002;2023-03-26T02:22:13;97868.13;;;6.83;86.26
34921;BME280;21128;50.016;20.002;2023-03-26T02:24:43;97871.83;;;6.81;85.34
34921;BME280;21128;50.016;20.002;2023-03-26T02:27:11;97865.78;;;6.80;86.14
34921;BME280;21128;50.016;20.002;2023-03-26T02:29:39;97874.59;;;6.79;87.00
34921;BME280;21128;50.016;20.002;2023-03-26T02:32:07;97871.98;;;6.79;87.29
34921;BME280;21128;50.016;20.002;2023-03-26T02:34:41;97864.84;;;6.81;86.66
34921;BME280;21128;50.016;20.002;2023-03-26T02:37:08;97876.94;;;6.82;86.00
34921;BME280;21128;50.016;20.002;2023-03-26T02:39:36;97878.58;;;6.83;87.83
34921;BME280;21128;50.016;20.002;2023-03-26T02:42:02;97870.07;;;6.81;86.59
34921;BME280;21128;50.016;20.002;2023-03-26T02:44:30;97875.30;;;6.81;87.48
34921;BME280;21128;50.016;20.002;2023-03-26T02:46:57;97870.07;;;6.81;87.88
34921;BME280;21128;50.016;20.002;2023-03-26T02:49:24;97871.71;;;6.82;88.55
34921;BME280;21128;50.016;20.002;2023-03-26T02:51:50;97872.39;;;6.84;87.22
34921;BME280;21128;50.016;20.002;2023-03-26T02:54:22;97883.36;;;6.88;87.53
34921;BME280;21128;50.016;20.002;2023-03-26T02:56:49;97877.98;;;6.89;88.37
34921;BME280;21128;50.016;20.002;2023-03-26T02:59:17;97871.83;;;6.90;88.73
34921;BME280;21128;50.016;20.002;2023-03-26T03:01:43;97874.14;;;6.93;88.50
34921;BME280;21128;50.016;20.002;2023-03-26T03:04:11;97872.20;;;6.95;88.21
34921;BME280;21128;50.016;20.002;2023-03-26T03:06:38;97865.75;;;6.99;87.48
34921;BME280;21128;50.016;20.002;2023-03-26T03:09:10;97863.80;;;7.01;86.91
34921;BME280;21128;50.016;20.002;2023-03-26T03:11:39;97875.59;;;7.05;86.54
34921;BME280;21128;50.016;20.002;2023-03-26T03:14:06;97871.75;;;7.10;86.57
34921;BME280;21128;50.016;20.002;2023-03-26T03:16:33;97869.80;;;7.12;86.04
34921;BME280;21128;50.016;20.002;2023-03-26T03:19:00;97870.36;;;7.15;85.31
34921;BME280;21128;50.016;20.002;2023-03-26T03:21:28;97878.72;;;7.19;85.26
34921;BME280;21128;50.016;20.002;2023-03-26T03:23:55;97869.77;;;7.21;84.72
34921;BME280;21128;50.016;20.002;2023-03-26T03:26:24;97872.10;;;7.24;84.51
34921;BME280;21128;50.016;20.002;2023-03-26T03:28:55;97868.22;;;7.28;84.53
34921;BME280;21128;50.016;20.002;2023-03-26T03:31:24;97869.86;;;7.29;83.66
34921;BME280;21128;50.016;20.002;2023-03-26T03:33:52;97862.72;;;7.31;83.84
34921;BME280;21128;50.016;20.002;2023-03-26T03:36:21;97865.86;;;7.35;83.23
34921;BME280;21128;50.016;20.002;2023-03-26T03:38:49;97869.14;;;7.37;83.38
34921;BME280;21128;50.016;20.002;2023-03-26T03:41:16;97860.88;;;7.42;82.60
34921;BME280;21128;50.016;20.002;2023-03-26T03:43:44;97861.39;;;7.45;82.07
34921;BME280;21128;50.016;20.002;2023-03-26T03:46:11;97866.35;;;7.48;82.06
34921;BME280;21128;50.016;20.002;2023-03-26T03:48:39;97867.84;;;7.51;81.35
34921;BME280;21128;50.016;20.002;2023-03-26T03:51:06;97875.37;;;7.54;81.52
34921;BME280;21128;50.016;20.002;2023-03-26T03:53:33;97875.10;;;7.57;81.37
34921;BME280;21128;50.016;20.002;2023-03-26T03:56:03;97877.41;;;7.60;80.74
34921;BME280;21128;50.016;20.002;2023-03-26T03:58:35;97875.31;;;7.63;80.43
34921;BME280;21128;50.016;20.002;2023-03-26T04:01:02;97874.49;;;7.63;80.01
34921;BME280;21128;50.016;20.002;2023-03-26T04:03:30;97875.31;;;7.63;79.69
34921;BME280;21128;50.016;20.002;2023-03-26T04:05:57;97875.05;;;7.67;79.73
34921;BME280;21128;50.016;20.002;2023-03-26T04:08:24;97877.66;;;7.67;79.44
34921;BME280;21128;50.016;20.002;2023-03-26T04:10:51;97866.37;;;7.66;79.51
34921;BME280;21128;50.016;20.002;2023-03-26T04:13:18;97875.05;;;7.67;79.29
34921;BME280;21128;50.016;20.002;2023-03-26T04:15:45;97874.89;;;7.68;79.43
34921;BME280;21128;50.016;20.002;2023-03-26T04:18:12;97881.09;;;7.67;78.94
34921;BME280;21128;50.016;20.002;2023-03-26T04:20:41;97871.73;;;7.65;79.10
34921;BME280;21128;50.016;20.002;2023-03-26T04:23:17;97865.67;;;7.64;79.20
34921;BME280;21128;50.016;20.002;2023-03-26T04:25:49;97862.95;;;7.66;79.64
34921;BME280;21128;50.016;20.002;2023-03-26T04:28:47;97862.95;;;7.66;79.04
34921;BME280;21128;50.016;20.002;2023-03-26T04:31:16;97865.55;;;7.66;78.85
34921;BME280;21128;50.016;20.002;2023-03-26T04:33:45;97864.59;;;7.67;78.33
34921;BME280;21128;50.016;20.002;2023-03-26T04:36:14;97853.97;;;7.68;78.36
34921;BME280;21128;50.016;20.002;2023-03-26T04:38:45;97855.45;;;7.71;78.16
34921;BME280;21128;50.016;20.002;2023-03-26T04:41:14;97850.08;;;7.72;78.93
34921;BME280;21128;50.016;20.002;2023-03-26T04:43:42;97850.77;;;7.74;78.49
34921;BME280;21128;50.016;20.002;2023-03-26T04:46:13;97842.77;;;7.76;78.91
34921;BME280;21128;50.016;20.002;2023-03-26T04:48:40;97850.62;;;7.76;78.21
34921;BME280;21128;50.016;20.002;2023-03-26T04:51:07;97850.47;;;7.77;77.67
34921;BME280;21128;50.016;20.002;2023-03-26T04:53:35;97846.05;;;7.78;77.62
34921;BME280;21128;50.016;20.002;2023-03-26T04:56:13;97847.70;;;7.79;77.63
34921;BME280;21128;50.016;20.002;2023-03-26T04:58:47;97845.75;;;7.81;77.91
34921;BME280;21128;50.016;20.002;2023-03-26T05:01:16;97845.63;;;7.82;77.62
34921;BME280;21128;50.016;20.002;2023-03-26T05:03:43;97846.29;;;7.84;77.20
34921;BME280;21128;50.016;20.002;2023-03-26T05:06:12;97839.93;;;7.87;76.39
34921;BME280;21128;50.016;20.002;2023-03-26T05:08:39;97845.83;;;7.89;76.73
34921;BME280;21128;50.016;20.002;2023-03-26T05:11:09;97844.84;;;7.90;77.03
34921;BME280;21128;50.016;20.002;2023-03-26T05:13:37;97847.47;;;7.90;76.83
34921;BME280;21128;50.016;20.002;2023-03-26T05:16:05;97848.16;;;7.92;76.99
34921;BME280;21128;50.016;20.002;2023-03-26T05:18:32;97842.93;;;7.92;76.52
34921;BME280;21128;50.016;20.002;2023-03-26T05:20:59;97843.75;;;7.93;77.02
34921;BME280;21128;50.016;20.002;2023-03-26T05:23:26;97841.95;;;7.93;76.68
34921;BME280;21128;50.016;20.002;2023-03-26T05:25:53;97847.85;;;7.95;76.78
34921;BME280;21128;50.016;20.002;2023-03-26T05:28:20;97835.44;;;7.97;76.23
34921;BME280;21128;50.016;20.002;2023-03-26T05:30:51;97835.16;;;8.00;76.63
34921;BME280;21128;50.016;20.002;2023-03-26T05:33:21;97835.98;;;8.01;76.70
34921;BME280;21128;50.016;20.002;2023-03-26T05:36:02;97836.80;;;8.01;77.04
34921;BME280;21128;50.016;20.002;2023-03-26T05:38:29;97839.41;;;8.01;77.00
34921;BME280;21128;50.016;20.002;2023-03-26T05:41:05;97844.65;;;8.01;76.26
34921;BME280;21128;50.016;20.002;2023-03-26T05:43:33;97846.13;;;8.04;76.65
34921;BME280;21128;50.016;20.002;2023-03-26T05:46:01;97839.92;;;8.05;77.29
34921;BME280;21128;50.016;20.002;2023-03-26T05:48:28;97842.38;;;8.06;76.43
34921;BME280;21128;50.016;20.002;2023-03-26T05:50:56;97850.11;;;8.08;76.81
34921;BME280;21128;50.016;20.002;2023-03-26T05:53:25;97848.82;;;8.12;77.24
34921;BME280;21128;50.016;20.002;2023-03-26T05:55:52;97838.73;;;8.17;77.07
34921;BME280;21128;50.016;20.002;2023-03-26T05:58:28;97845.30;;;8.21;76.91
34921;BME280;21128;50.016;20.002;2023-03-26T06:01:03;97851.42;;;8.30;76.68
34921;BME280;21128;50.016;20.002;2023-03-26T06:03:33;97851.13;;;8.33;76.79
34921;BME280;21128;50.016;20.002;2023-03-26T06:06:00;97857.28;;;8.41;76.34
34921;BME280;21128;50.016;20.002;2023-03-26T06:08:29;97849.11;;;8.44;76.52
34921;BME280;21128;50.016;20.002;2023-03-26T06:10:59;97850.59;;;8.47;76.18
34921;BME280;21128;50.016;20.002;2023-03-26T06:13:26;97850.44;;;8.49;75.91
34921;BME280;21128;50.016;20.002;2023-03-26T06:15:53;97840.66;;;8.51;75.45
34921;BME280;21128;50.016;20.002;2023-03-26T06:18:20;97844.59;;;8.55;75.21
34921;BME280;21128;50.016;20.002;2023-03-26T06:20:48;97849.55;;;8.58;75.66
34921;BME280;21128;50.016;20.002;2023-03-26T06:23:17;97844.66;;;8.63;75.12
34921;BME280;21128;50.016;20.002;2023-03-26T06:25:45;97852.06;;;8.67;75.12
34921;BME280;21128;50.016;20.002;2023-03-26T06:28:12;97850.77;;;8.71;74.74
34921;BME280;21128;50.016;20.002;2023-03-26T06:30:39;97854.41;;;8.79;74.93
34921;BME280;21128;50.016;20.002;2023-03-26T06:33:06;97853.96;;;8.83;73.39
34921;BME280;21128;50.016;20.002;2023-03-26T06:35:33;97856.05;;;8.80;74.14
34921;BME280;21128;50.016;20.002;2023-03-26T06:38:01;97845.25;;;8.83;73.57
34921;BME280;21128;50.016;20.002;2023-03-26T06:40:28;97846.59;;;8.87;73.37
34921;BME280;21128;50.016;20.002;2023-03-26T06:42:56;97855.48;;;8.94;73.92
34921;BME280;21128;50.016;20.002;2023-03-26T06:45:23;97850.74;;;8.97;72.12
34921;BME280;21128;50.016;20.002;2023-03-26T06:47:49;97859.27;;;8.99;72.52
34921;BME280;21128;50.016;20.002;2023-03-26T06:50:17;97854.23;;;9.06;72.60
34921;BME280;21128;50.016;20.002;2023-03-26T06:52:44;97853.97;;;9.17;72.16
34921;BME280;21128;50.016;20.002;2023-03-26T06:55:12;97846.14;;;9.25;72.43
34921;BME280;21128;50.016;20.002;2023-03-26T06:57:39;97848.11;;;9.31;70.08
34921;BME280;21128;50.016;20.002;2023-03-26T07:00:07;97858.11;;;9.28;67.86
34921;BME280;21128;50.016;20.002;2023-03-26T07:02:35;97853.69;;;9.28;69.09
34921;BME280;21128;50.016;20.002;2023-03-26T07:05:02;97856.66;;;9.34;68.57
34921;BME280;21128;50.016;20.002;2023-03-26T07:07:29;97862.73;;;9.34;67.89
34921;BME280;21128;50.016;20.002;2023-03-26T07:09:56;97853.52;;;9.30;67.30
34921;BME280;21128;50.016;20.002;2023-03-26T07:12:24;97865.64;;;9.31;68.27
34921;BME280;21128;50.016;20.002;2023-03-26T07:14:51;97856.01;;;9.40;67.85
34921;BME280;21128;50.016;20.002;2023-03-26T07:17:18;97863.91;;;9.48;67.47
34921;BME280;21128;50.016;20.002;2023-03-26T07:19:45;97856.39;;;9.53;66.68
34921;BME280;21128;50.016;20.002;2023-03-26T07:22:21;97856.42;;;9.61;67.15
34921;BME280;21128;50.016;20.002;2023-03-26T07:24:49;97863.33;;;9.70;66.63
34921;BME280;21128;50.016;20.002;2023-03-26T07:33:03;97843.02;;;9.88;66.49
34921;BME280;21128;50.016;20.002;2023-03-26T07:35:54;97846.64;;;9.87;66.15
34921;BME280;21128;50.016;20.002;2023-03-26T07:42:08;97836.81;;;10.14;66.49
34921;BME280;21128;50.016;20.002;2023-03-26T07:46:59;97852.07;;;10.67;64.65
34921;BME280;21128;50.016;20.002;2023-03-26T07:49:30;97835.17;;;10.70;63.62
34921;BME280;21128;50.016;20.002;2023-03-26T07:51:58;97834.80;;;10.89;64.50
34921;BME280;21128;50.016;20.002;2023-03-26T07:54:27;97831.27;;;11.13;63.81
34921;BME280;21128;50.016;20.002;2023-03-26T07:57:02;97823.96;;;11.32;62.25
34921;BME280;21128;50.016;20.002;2023-03-26T08:02:45;97824.02;;;11.54;60.39
34921;BME280;21128;50.016;20.002;2023-03-26T08:05:28;97821.44;;;11.46;59.26
34921;BME280;21128;50.016;20.002;2023-03-26T08:08:16;97817.81;;;11.47;60.15
34921;BME280;21128;50.016;20.002;2023-03-26T08:11:17;97819.13;;;11.43;58.09
34921;BME280;21128;50.016;20.002;2023-03-26T08:14:31;97825.78;;;11.31;58.72
34921;BME280;21128;50.016;20.002;2023-03-26T08:17:29;97815.27;;;11.62;59.82
34921;BME280;21128;50.016;20.002;2023-03-26T08:22:47;97816.37;;;11.68;57.74
34921;BME280;21128;50.016;20.002;2023-03-26T08:25:26;97820.44;;;11.78;57.40
34921;BME280;21128;50.016;20.002;2023-03-26T08:28:18;97810.03;;;11.85;57.55
34921;BME280;21128;50.016;20.002;2023-03-26T08:30:47;97813.49;;;12.08;56.38
34921;BME280;21128;50.016;20.002;2023-03-26T08:33:17;97803.14;;;12.07;55.74
34921;BME280;21128;50.016;20.002;2023-03-26T08:35:45;97818.92;;;11.84;55.90
34921;BME280;21128;50.016;20.002;2023-03-26T08:38:15;97816.55;;;11.66;56.24
34921;BME280;21128;50.016;20.002;2023-03-26T08:54:02;97818.12;;;11.13;56.61
34921;BME280;21128;50.016;20.002;2023-03-26T09:05:00;97814.62;;;11.29;55.53
34921;BME280;21128;50.016;20.002;2023-03-26T09:24:32;97774.01;;;14.20;50.48
34921;BME280;21128;50.016;20.002;2023-03-26T09:32:26;97801.94;;;14.51;48.85
34921;BME280;21128;50.016;20.002;2023-03-26T09:38:05;97800.13;;;14.08;46.69
34921;BME280;21128;50.016;20.002;2023-03-26T09:40:57;97802.70;;;13.44;46.68
34921;BME280;21128;50.016;20.002;2023-03-26T09:43:38;97793.00;;;13.15;47.96
34921;BME280;21128;50.016;20.002;2023-03-26T09:46:36;97796.82;;;13.28;48.58
34921;BME280;21128;50.016;20.002;2023-03-26T09:49:13;97803.38;;;13.32;48.42
34921;BME280;21128;50.016;20.002;2023-03-26T09:52:05;97796.39;;;13.60;47.27
34921;BME280;21128;50.016;20.002;2023-03-26T10:06:00;97788.86;;;12.01;50.31
34921;BME280;21128;50.016;20.002;2023-03-26T10:08:54;97789.98;;;11.84;50.94
34921;BME280;21128;50.016;20.002;2023-03-26T10:15:00;97776.81;;;11.84;51.26
34921;BME280;21128;50.016;20.002;2023-03-26T10:19:44;97784.53;;;12.46;51.34
34921;BME280;21128;50.016;20.002;2023-03-26T10:25:30;97774.17;;;13.33;49.96
34921;BME280;21128;50.016;20.002;2023-03-26T10:31:22;97770.56;;;12.90;48.98
34921;BME280;21128;50.016;20.002;2023-03-26T10:34:38;97767.73;;;12.77;49.56
34921;BME280;21128;50.016;20.002;2023-03-26T10:45:40;97761.50;;;12.25;50.10
34921;BME280;21128;50.016;20.002;2023-03-26T10:53:48;97766.83;;;12.02;50.57
34921;BME280;21128;50.016;20.002;2023-03-26T10:56:40;97759.75;;;12.03;51.27
34921;BME280;21128;50.016;20.002;2023-03-26T10:59:15;97752.93;;;12.08;51.14
34921;BME280;21128;50.016;20.002;2023-03-26T11:10:15;97746.58;;;12.03;50.13
34921;BME280;21128;50.016;20.002;2023-03-26T11:15:44;97746.16;;;11.91;50.01
34921;BME280;21128;50.016;20.002;2023-03-26T11:21:14;97748.03;;;12.05;48.85
34921;BME280;21128;50.016;20.002;2023-03-26T11:27:02;97741.18;;;12.93;49.14
34921;BME280;21128;50.016;20.002;2023-03-26T11:30:54;97732.42;;;13.58;47.08
34921;BME280;21128;50.016;20.002;2023-03-26T11:32:59;97725.20;;;13.88;48.00
34921;BME280;21128;50.016;20.002;2023-03-26T11:35:36;97723.24;;;13.97;47.70
34921;BME280;21128;50.016;20.002;2023-03-26T11:40:54;97722.55;;;13.67;47.17
34921;BME280;21128;50.016;20.002;2023-03-26T11:43:25;97723.38;;;13.67;47.94
34921;BME280;21128;50.016;20.002;2023-03-26T11:45:53;97731.88;;;13.63;46.45
34921;BME280;21128;50.016;20.002;2023-03-26T11:48:31;97719.03;;;13.38;47.20
34921;BME280;21128;50.016;20.002;2023-03-26T11:51:06;97713.98;;;13.22;46.83
34921;BME280;21128;50.016;20.002;2023-03-26T11:53:34;97741.08;;;13.01;45.84
34921;BME280;21128;50.016;20.002;2023-03-26T11:59:22;97712.22;;;12.63;46.71
34921;BME280;21128;50.016;20.002;2023-03-26T12:01:58;97713.76;;;12.73;46.86
34921;BME280;21128;50.016;20.002;2023-03-26T12:04:42;97709.30;;;12.73;46.89
34921;BME280;21128;50.016;20.002;2023-03-26T12:07:19;97717.02;;;12.75;47.58
34921;BME280;21128;50.016;20.002;2023-03-26T12:12:19;97702.20;;;12.88;47.08
34921;BME280;21128;50.016;20.002;2023-03-26T12:14:47;97688.31;;;13.16;48.05
34921;BME280;21128;50.016;20.002;2023-03-26T12:17:26;97681.28;;;13.38;47.46
34921;BME280;21128;50.016;20.002;2023-03-26T12:19:55;97700.60;;;13.23;45.38
34921;BME280;21128;50.016;20.002;2023-03-26T12:22:34;97691.06;;;13.08;45.47
34921;BME280;21128;50.016;20.002;2023-03-26T12:25:18;97684.18;;;12.92;46.08
34921;BME280;21128;50.016;20.002;2023-03-26T12:30:41;97686.02;;;12.77;46.96
34921;BME280;21128;50.016;20.002;2023-03-26T12:33:30;97687.40;;;12.73;47.05
34921;BME280;21128;50.016;20.002;2023-03-26T12:36:21;97689.84;;;12.74;47.67
34921;BME280;21128;50.016;20.002;2023-03-26T12:38:53;97672.48;;;12.80;47.85
34921;BME280;21128;50.016;20.002;2023-03-26T12:41:35;97672.30;;;12.81;47.46
34921;BME280;21128;50.016;20.002;2023-03-26T12:44:28;97669.75;;;12.88;47.76
34921;BME280;21128;50.016;20.002;2023-03-26T12:47:08;97672.28;;;12.96;48.43
34921;BME280;21128;50.016;20.002;2023-03-26T12:49:37;97668.36;;;12.92;48.90
34921;BME280;21128;50.016;20.002;2023-03-26T12:57:37;97665.79;;;12.62;49.56
34921;BME280;21128;50.016;20.002;2023-03-26T13:00:27;97671.69;;;12.64;49.77
34921;BME280;21128;50.016;20.002;2023-03-26T13:03:29;97681.95;;;12.59;49.40
34921;BME280;21128;50.016;20.002;2023-03-26T13:14:29;97644.75;;;13.20;47.67
34921;BME280;21128;50.016;20.002;2023-03-26T13:17:03;97630.89;;;13.33;47.87
34921;BME280;21128;50.016;20.002;2023-03-26T13:22:30;97620.63;;;13.44;48.08
34921;BME280;21128;50.016;20.002;2023-03-26T13:27:57;97621.47;;;13.23;48.28
34921;BME280;21128;50.016;20.002;2023-03-26T13:48:59;97602.14;;;13.02;47.81
34921;BME280;21128;50.016;20.002;2023-03-26T13:51:39;97600.51;;;13.01;47.35
34921;BME280;21128;50.016;20.002;2023-03-26T13:59:54;97590.34;;;13.90;47.31
34921;BME280;21128;50.016;20.002;2023-03-26T14:02:33;97582.24;;;14.32;46.59
34921;BME280;21128;50.016;20.002;2023-03-26T14:05:14;97582.81;;;14.69;45.72
34921;BME280;21128;50.016;20.002;2023-03-26T14:07:52;97589.83;;;14.97;43.97
34921;BME280;21128;50.016;20.002;2023-03-26T14:10:26;97585.33;;;14.90;44.04
34921;BME280;21128;50.016;20.002;2023-03-26T14:15:45;97579.79;;;14.72;43.86
34921;BME280;21128;50.016;20.002;2023-03-26T14:18:34;97583.70;;;14.42;43.72
34921;BME280;21128;50.016;20.002;2023-03-26T14:32:39;97580.77;;;13.33;45.15
34921;BME280;21128;50.016;20.002;2023-03-26T14:35:40;97576.72;;;13.15;46.13
34921;BME280;21128;50.016;20.002;2023-03-26T14:41:28;97589.22;;;13.07;46.08
34921;BME280;21128;50.016;20.002;2023-03-26T14:44:34;97578.24;;;13.03;46.93
34921;BME280;21128;50.016;20.002;2023-03-26T14:47:21;97581.11;;;13.08;46.53
34921;BME280;21128;50.016;20.002;2023-03-26T14:55:41;97583.11;;;12.85;46.12
34921;BME280;21128;50.016;20.002;2023-03-26T15:04:06;97578.72;;;12.71;46.73
34921;BME280;21128;50.016;20.002;2023-03-26T15:41:09;97557.67;;;12.77;47.59
34921;BME280;21128;50.016;20.002;2023-03-26T15:57:15;97547.01;;;12.64;47.14
34921;BME280;21128;50.016;20.002;2023-03-26T15:59:57;97546.20;;;12.63;47.20
34921;BME280;21128;50.016;20.002;2023-03-26T16:05:01;97539.53;;;12.67;46.47
34921;BME280;21128;50.016;20.002;2023-03-26T16:07:48;97536.16;;;12.74;46.28
34921;BME280;21128;50.016;20.002;2023-03-26T16:10:23;97534.09;;;12.90;46.44
34921;BME280;21128;50.016;20.002;2023-03-26T16:15:49;97519.55;;;13.44;45.83
34921;BME280;21128;50.016;20.002;2023-03-26T16:18:28;97524.73;;;13.59;45.03
34921;BME280;21128;50.016;20.002;2023-03-26T16:21:03;97526.06;;;13.76;44.22
34921;BME280;21128;50.016;20.002;2023-03-26T16:23:54;97527.42;;;13.65;44.33
34921;BME280;21128;50.016;20.002;2023-03-26T16:26:52;97528.28;;;13.72;44.13
34921;BME280;21128;50.016;20.002;2023-03-26T16:29:24;97519.11;;;13.68;43.80
34921;BME280;21128;50.016;20.002;2023-03-26T16:37:47;97510.45;;;13.46;44.32
34921;BME280;21128;50.016;20.002;2023-03-26T16:48:27;97518.08;;;12.92;44.75
34921;BME280;21128;50.016;20.002;2023-03-26T16:51:57;97526.43;;;12.74;44.61
34921;BME280;21128;50.016;20.002;2023-03-26T16:54:15;97519.77;;;12.57;45.12
34921;BME280;21128;50.016;20.002;2023-03-26T16:57:08;97526.16;;;12.48;45.15
34921;BME280;21128;50.016;20.002;2023-03-26T17:00:15;97518.36;;;12.39;45.37
34921;BME280;21128;50.016;20.002;2023-03-26T17:08:43;97515.95;;;12.08;46.54
34921;BME280;21128;50.016;20.002;2023-03-26T17:22:45;97517.94;;;11.77;47.14
34921;BME280;21128;50.016;20.002;2023-03-26T17:25:43;97515.05;;;11.72;46.95
34921;BME280;21128;50.016;20.002;2023-03-26T17:31:11;97514.41;;;11.55;47.42
34921;BME280;21128;50.016;20.002;2023-03-26T17:33:41;97515.12;;;11.49;47.68
34921;BME280;21128;50.016;20.002;2023-03-26T17:41:06;97519.54;;;11.34;48.24
34921;BME280;21128;50.016;20.002;2023-03-26T17:43:50;97519.09;;;11.30;47.97
34921;BME280;21128;50.016;20.002;2023-03-26T17:46:29;97519.61;;;11.25;48.01
34921;BME280;21128;50.016;20.002;2023-03-26T17:49:00;97523.61;;;11.21;48.25
34921;BME280;21128;50.016;20.002;2023-03-26T17:56:55;97516.97;;;11.11;48.46
34921;BME280;21128;50.016;20.002;2023-03-26T17:59:27;97528.63;;;11.08;48.45
34921;BME280;21128;50.016;20.002;2023-03-26T18:01:57;97532.44;;;11.06;48.21
34921;BME280;21128;50.016;20.002;2023-03-26T18:04:32;97521.48;;;11.02;48.50
34921;BME280;21128;50.016;20.002;2023-03-26T18:12:22;97526.95;;;10.92;47.96
34921;BME280;21128;50.016;20.002;2023-03-26T18:17:42;97525.69;;;10.88;48.71
34921;BME280;21128;50.016;20.002;2023-03-26T18:20:23;97517.80;;;10.88;48.73
34921;BME280;21128;50.016;20.002;2023-03-26T18:22:52;97524.05;;;10.87;48.49
34921;BME280;21128;50.016;20.002;2023-03-26T18:25:28;97525.05;;;10.86;48.67
34921;BME280;21128;50.016;20.002;2023-03-26T18:27:58;97519.80;;;10.86;48.50
34921;BME280;21128;50.016;20.002;2023-03-26T18:30:28;97524.38;;;10.84;48.94
34921;BME280;21128;50.016;20.002;2023-03-26T18:33:01;97513.88;;;10.84;48.66
34921;BME280;21128;50.016;20.002;2023-03-26T18:38:13;97506.35;;;10.81;49.15
34921;BME280;21128;50.016;20.002;2023-03-26T18:40:44;97503.72;;;10.81;48.82
34921;BME280;21128;50.016;20.002;2023-03-26T18:43:20;97506.35;;;10.81;48.86
34921;BME280;21128;50.016;20.002;2023-03-26T18:45:50;97504.72;;;10.80;48.89
34921;BME280;21128;50.016;20.002;2023-03-26T18:48:23;97503.09;;;10.79;49.11
34921;BME280;21128;50.016;20.002;2023-03-26T18:50:56;97500.46;;;10.79;49.09
34921;BME280;21128;50.016;20.002;2023-03-26T18:53:27;97504.09;;;10.78;48.93
34921;BME280;21128;50.016;20.002;2023-03-26T18:55:56;97507.53;;;10.79;49.23
34921;BME280;21128;50.016;20.002;2023-03-26T18:58:27;97512.78;;;10.79;49.10
34921;BME280;21128;50.016;20.002;2023-03-26T19:01:05;97515.23;;;10.80;49.26
34921;BME280;21128;50.016;20.002;2023-03-26T19:03:39;97514.59;;;10.78;49.33